createdAt,value
2016-02-17T00:00:18.105Z,81.03
2016-02-17T00:01:18.092Z,80.84
2016-02-17T00:02:18.079Z,80.75
2016-02-17T00:03:18.082Z,80.65
2016-02-17T00:04:18.068Z,80.75
2016-02-17T00:05:18.072Z,80.75
2016-02-17T00:06:18.059Z,80.84
2016-02-17T00:07:18.061Z,81.32
2016-02-17T00:08:18.049Z,81.32
2016-02-17T00:09:18.035Z,80.75
2016-02-17T00:10:18.038Z,80.65
2016-02-17T00:11:18.040Z,80.84
2016-02-17T00:12:18.029Z,80.27
2016-02-17T00:13:18.015Z,80.56
2016-02-17T00:14:18.002Z,80.46
2016-02-17T00:15:17.990Z,80.37
2016-02-17T00:16:17.992Z,80.56
2016-02-17T00:17:17.979Z,80.46
2016-02-17T00:18:17.981Z,80.75
2016-02-17T00:19:17.968Z,80.65
2016-02-17T00:20:17.956Z,80.56
2016-02-17T00:21:17.958Z,80.84
2016-02-17T00:22:17.945Z,80.84
2016-02-17T00:23:17.933Z,81.03
2016-02-17T00:24:17.935Z,80.84
2016-02-17T00:25:17.922Z,81.22
2016-02-17T00:26:17.925Z,81.13
2016-02-17T00:27:17.897Z,81.13
2016-02-17T00:28:17.900Z,81.22
2016-02-17T00:29:17.902Z,81.32
2016-02-17T00:30:17.894Z,81.03
2016-02-17T00:31:17.880Z,81.51
2016-02-17T00:32:17.868Z,81.22
2016-02-17T00:33:17.871Z,80.84
2016-02-17T00:34:17.858Z,80.37
2016-02-17T00:35:17.844Z,81.22
2016-02-17T00:36:17.847Z,81.32
2016-02-17T00:37:17.835Z,80.94
2016-02-17T00:38:17.821Z,81.03
2016-02-17T00:39:17.824Z,81.22
2016-02-17T00:40:17.826Z,81.03
2016-02-17T00:41:17.799Z,80.84
2016-02-17T00:42:17.801Z,81.37
2016-02-17T00:43:17.788Z,80.65
2016-02-17T00:44:17.790Z,81.22
2016-02-17T00:45:17.778Z,80.75
2016-02-17T00:46:17.781Z,80.46
2016-02-17T00:47:17.768Z,80.75
2016-02-17T00:48:17.754Z,80.37
2016-02-17T00:49:17.742Z,80.8
2016-02-17T00:50:17.729Z,81.18
2016-02-17T00:51:17.731Z,81.37
2016-02-17T00:52:17.734Z,80.71
2016-02-17T00:53:17.721Z,80.71
2016-02-17T00:54:17.709Z,80.71
2016-02-17T00:55:17.695Z,80.71
2016-02-17T00:56:17.745Z,80.71
2016-02-17T00:57:17.685Z,81.18
2016-02-17T00:58:17.688Z,80.9
2016-02-17T00:59:17.675Z,80.8
2016-02-17T01:00:17.661Z,80.99
2016-02-17T01:01:17.664Z,81.27
2016-02-17T01:02:17.652Z,80.99
2016-02-17T01:03:17.639Z,80.99
2016-02-17T01:04:17.641Z,80.9
2016-02-17T01:05:17.629Z,80.9
2016-02-17T01:06:17.615Z,80.9
2016-02-17T01:07:17.619Z,80.9
2016-02-17T01:08:17.621Z,80.99
2016-02-17T01:09:17.608Z,80.71
2016-02-17T01:10:17.595Z,80.62
2016-02-17T01:11:17.598Z,80.9
2016-02-17T01:12:17.569Z,80.8
2016-02-17T01:13:17.571Z,80.99
2016-02-17T01:14:17.574Z,81.18
2016-02-17T01:15:17.562Z,81.37
2016-02-17T01:16:17.548Z,81.46
2016-02-17T01:17:17.536Z,81.37
2016-02-17T01:18:17.539Z,81.65
2016-02-17T01:19:17.526Z,81.37
2016-02-17T01:20:17.528Z,81.46
2016-02-17T01:21:17.515Z,81.65
2016-02-17T01:22:17.502Z,81.56
2016-02-17T01:23:17.490Z,81.46
2016-02-17T01:24:17.476Z,81.93
2016-02-17T01:25:17.479Z,82.22
2016-02-17T01:26:17.467Z,82.03
2016-02-17T01:27:17.469Z,82.03
2016-02-17T01:28:17.456Z,81.74
2016-02-17T01:29:17.459Z,81.93
2016-02-17T01:30:17.446Z,81.74
2016-02-17T01:31:17.449Z,81.74
2016-02-17T01:32:17.436Z,82.12
2016-02-17T01:33:17.422Z,81.84
2016-02-17T01:34:17.410Z,81.93
2016-02-17T01:35:17.396Z,82.12
2016-02-17T01:36:17.400Z,82.31
2016-02-17T01:37:17.386Z,82.5
2016-02-17T01:38:17.374Z,82.31
2016-02-17T01:39:17.360Z,82.03
2016-02-17T01:40:17.363Z,82.41
2016-02-17T01:41:17.351Z,82.69
2016-02-17T01:42:17.337Z,82.6
2016-02-17T01:43:17.340Z,82.5
2016-02-17T01:44:17.343Z,82.69
2016-02-17T01:45:17.330Z,82.6
2016-02-17T01:46:17.332Z,82.5
2016-02-17T01:47:17.320Z,81.93
2016-02-17T01:48:17.291Z,82.12
2016-02-17T01:49:17.278Z,82.12
2016-02-17T01:50:17.281Z,82.31
2016-02-17T01:51:17.267Z,82.69
2016-02-17T01:52:17.255Z,83.83
2016-02-17T01:53:17.258Z,83.45
2016-02-17T01:54:17.245Z,83.07
2016-02-17T01:55:17.247Z,82.88
2016-02-17T01:56:17.297Z,82.98
2016-02-17T01:57:17.222Z,83.07
2016-02-17T01:58:17.209Z,83.17
2016-02-17T01:59:17.211Z,82.88
2016-02-17T02:00:17.198Z,83.17
2016-02-17T02:01:17.186Z,83.07
2016-02-17T02:02:17.172Z,83.17
2016-02-17T02:03:17.160Z,82.98
2016-02-17T02:04:17.162Z,82.98
2016-02-17T02:05:17.149Z,82.79
2016-02-17T02:06:17.136Z,82.41
2016-02-17T02:07:17.138Z,82.5
2016-02-17T02:08:17.127Z,82.6
2016-02-17T02:09:17.113Z,82.6
2016-02-17T02:10:17.100Z,82.6
2016-02-17T02:11:17.103Z,82.31
2016-02-17T02:12:17.090Z,82.5
2016-02-17T02:13:17.077Z,82.31
2016-02-17T02:14:17.065Z,82.41
2016-02-17T02:15:17.067Z,82.5
2016-02-17T02:16:17.054Z,82.5
2016-02-17T02:17:17.057Z,82.5
2016-02-17T02:18:17.044Z,82.79
2016-02-17T02:19:17.031Z,82.6
2016-02-17T02:20:17.033Z,82.88
2016-02-17T02:21:17.020Z,82.46
2016-02-17T02:22:17.007Z,82.65
2016-02-17T02:23:16.995Z,82.6
2016-02-17T02:24:16.997Z,82.41
2016-02-17T02:25:16.985Z,82.69
2016-02-17T02:26:16.973Z,82.5
2016-02-17T02:27:16.960Z,82.6
2016-02-17T02:28:16.962Z,82.69
2016-02-17T02:29:16.949Z,82.03
2016-02-17T02:30:16.937Z,82.03
2016-02-17T02:31:16.939Z,81.93
2016-02-17T02:32:16.926Z,82.03
2016-02-17T02:33:16.912Z,82.03
2016-02-17T02:34:16.916Z,82.03
2016-02-17T02:35:16.903Z,82.12
2016-02-17T02:36:16.906Z,81.93
2016-02-17T02:37:16.892Z,82.09
2016-02-17T02:38:16.880Z,81.84
2016-02-17T02:39:16.867Z,81.74
2016-02-17T02:40:16.853Z,81.65
2016-02-17T02:41:16.856Z,82.03
2016-02-17T02:42:16.859Z,81.99
2016-02-17T02:43:16.831Z,81.99
2016-02-17T02:44:16.833Z,82.18
2016-02-17T02:45:16.820Z,82.22
2016-02-17T02:46:16.808Z,81.9
2016-02-17T02:47:16.811Z,81.99
2016-02-17T02:48:16.797Z,81.9
2016-02-17T02:49:16.785Z,82.65
2016-02-17T02:50:16.771Z,82.65
2016-02-17T02:51:16.758Z,82.75
2016-02-17T02:52:16.746Z,82.75
2016-02-17T02:53:16.748Z,82.56
2016-02-17T02:54:16.751Z,82.37
2016-02-17T02:55:16.738Z,82.09
2016-02-17T02:56:16.741Z,82.18
2016-02-17T02:57:16.728Z,82.09
2016-02-17T02:58:16.699Z,81.99
2016-02-17T02:59:16.702Z,82.09
2016-02-17T03:00:16.689Z,82.09
2016-02-17T03:01:16.692Z,82.37
2016-02-17T03:02:16.678Z,82.46
2016-02-17T03:03:16.666Z,83.03
2016-02-17T03:04:16.653Z,82.84
2016-02-17T03:05:16.656Z,82.84
2016-02-17T03:06:16.642Z,83.12
2016-02-17T03:07:16.629Z,83.12
2016-02-17T03:08:16.617Z,83.03
2016-02-17T03:09:16.619Z,82.65
2016-02-17T03:10:16.606Z,83.12
2016-02-17T03:11:16.609Z,82.65
2016-02-17T03:12:16.581Z,82.46
2016-02-17T03:13:16.583Z,82.56
2016-02-17T03:14:16.570Z,83.12
2016-02-17T03:15:16.572Z,83.4
2016-02-17T03:16:16.545Z,83.78
2016-02-17T03:17:16.547Z,83.31
2016-02-17T03:18:16.534Z,83.5
2016-02-17T03:19:16.536Z,84.07
2016-02-17T03:20:16.508Z,84.07
2016-02-17T03:21:16.511Z,83.88
2016-02-17T03:22:16.498Z,83.97
2016-02-17T03:23:16.501Z,84.35
2016-02-17T03:24:16.472Z,83.88
2016-02-17T03:25:16.475Z,84.07
2016-02-17T03:26:16.462Z,83.78
2016-02-17T03:27:16.449Z,84.16
2016-02-17T03:28:16.452Z,84.07
2016-02-17T03:29:16.438Z,84.07
2016-02-17T03:30:16.426Z,84.45
2016-02-17T03:31:16.412Z,83.78
2016-02-17T03:32:16.401Z,83.97
2016-02-17T03:33:16.418Z,83.97
2016-02-17T03:34:16.390Z,83.59
2016-02-17T03:35:16.393Z,83.4
2016-02-17T03:36:16.395Z,83.78
2016-02-17T03:37:16.367Z,83.88
2016-02-17T03:38:16.353Z,83.12
2016-02-17T03:39:16.340Z,83.78
2016-02-17T03:40:16.343Z,83.12
2016-02-17T03:41:16.331Z,83.12
2016-02-17T03:42:16.333Z,83.59
2016-02-17T03:43:16.305Z,83.4
2016-02-17T03:44:16.307Z,83.78
2016-02-17T03:45:16.294Z,84.16
2016-02-17T03:46:16.297Z,84.07
2016-02-17T03:47:16.269Z,84.35
2016-02-17T03:48:16.271Z,84.07
2016-02-17T03:49:16.274Z,84.07
2016-02-17T03:50:16.261Z,84.64
2016-02-17T03:51:16.091Z,84.35
2016-02-17T03:52:16.235Z,84.35
2016-02-17T03:53:16.222Z,84.54
2016-02-17T03:54:16.225Z,84.82
2016-02-17T03:55:16.212Z,84.45
2016-02-17T03:56:16.215Z,85.01
2016-02-17T03:57:16.186Z,85.01
2016-02-17T03:58:16.188Z,84.73
2016-02-17T03:59:16.176Z,84.64
2016-02-17T04:00:16.178Z,84.64
2016-02-17T04:01:16.166Z,84.54
2016-02-17T04:02:16.152Z,84.45
2016-02-17T04:03:16.140Z,84.64
2016-02-17T04:04:16.158Z,84.35
2016-02-17T04:05:16.129Z,84.35
2016-02-17T04:06:16.132Z,84.54
2016-02-17T04:07:16.119Z,84.45
2016-02-17T04:08:16.122Z,84.54
2016-02-17T04:09:16.093Z,84.45
2016-02-17T04:10:16.096Z,84.45
2016-02-17T04:11:16.067Z,84.35
2016-02-17T04:12:16.070Z,84.16
2016-02-17T04:13:16.056Z,83.97
2016-02-17T04:14:16.059Z,83.97
2016-02-17T04:15:16.047Z,84.16
2016-02-17T04:16:15.878Z,84.26
2016-02-17T04:17:16.021Z,84.64
2016-02-17T04:18:16.024Z,83.97
2016-02-17T04:19:16.011Z,83.97
2016-02-17T04:20:15.997Z,83.78
2016-02-17T04:21:15.985Z,84.07
2016-02-17T04:22:15.972Z,83.78
2016-02-17T04:23:15.975Z,83.88
2016-02-17T04:24:15.961Z,84.07
2016-02-17T04:25:15.964Z,84.07
2016-02-17T04:26:15.952Z,84.07
2016-02-17T04:27:15.938Z,84.07
2016-02-17T04:28:15.926Z,83.78
2016-02-17T04:29:15.928Z,84.26
2016-02-17T04:30:15.915Z,84.16
2016-02-17T04:31:15.918Z,84.16
2016-02-17T04:32:15.890Z,83.88
2016-02-17T04:33:15.893Z,83.59
2016-02-17T04:34:15.879Z,83.59
2016-02-17T04:35:15.882Z,83.69
2016-02-17T04:36:15.853Z,83.31
2016-02-17T04:37:15.871Z,83.4
2016-02-17T04:38:15.843Z,83.59
2016-02-17T04:39:15.862Z,83.5
2016-02-17T04:40:15.833Z,83.4
2016-02-17T04:41:15.836Z,83.4
2016-02-17T04:42:15.822Z,83.4
2016-02-17T04:43:15.809Z,83.5
2016-02-17T04:44:15.797Z,83.59
2016-02-17T04:45:15.783Z,83.78
2016-02-17T04:46:15.787Z,83.88
2016-02-17T04:47:15.789Z,83.97
2016-02-17T04:48:15.761Z,83.97
2016-02-17T04:49:15.764Z,84.26
2016-02-17T04:50:15.750Z,84.07
2016-02-17T04:51:15.738Z,84.07
2016-02-17T04:52:15.725Z,84.16
2016-02-17T04:53:15.711Z,84.35
2016-02-17T04:54:15.761Z,84.07
2016-02-17T04:55:15.717Z,84.07
2016-02-17T04:56:15.704Z,84.26
2016-02-17T04:57:15.691Z,84.07
2016-02-17T04:58:15.677Z,84.16
2016-02-17T04:59:15.680Z,84.26
2016-02-17T05:00:15.668Z,84.45
2016-02-17T05:01:15.671Z,84.64
2016-02-17T05:02:15.658Z,83.97
2016-02-17T05:03:15.645Z,84.45
2016-02-17T05:04:15.632Z,84.64
2016-02-17T05:05:15.634Z,84.54
2016-02-17T05:06:15.606Z,84.45
2016-02-17T05:07:15.624Z,84.35
2016-02-17T05:08:15.596Z,84.54
2016-02-17T05:09:15.599Z,83.97
2016-02-17T05:10:15.585Z,83.97
2016-02-17T05:11:15.573Z,83.92
2016-02-17T05:12:15.575Z,84.01
2016-02-17T05:13:15.562Z,84.3
2016-02-17T05:14:15.549Z,84.11
2016-02-17T05:15:15.537Z,84.45
2016-02-17T05:16:15.539Z,84.01
2016-02-17T05:17:15.526Z,83.83
2016-02-17T05:18:15.514Z,84.01
2016-02-17T05:19:15.516Z,84.11
2016-02-17T05:20:15.503Z,84.07
2016-02-17T05:21:21.005Z,84.11
2016-02-17T05:22:15.492Z,83.92
2016-02-17T05:23:15.480Z,84.01
2016-02-17T05:24:15.483Z,84.11
2016-02-17T05:25:15.455Z,84.01
2016-02-17T05:26:15.472Z,84.01
2016-02-17T05:27:15.631Z,83.73
2016-02-17T05:28:15.446Z,84.2
2016-02-17T05:29:15.433Z,84.11
2016-02-17T05:30:15.436Z,83.83
2016-02-17T05:31:15.408Z,83.54
2016-02-17T05:32:15.410Z,83.83
2016-02-17T05:33:15.397Z,83.92
2016-02-17T05:34:15.399Z,83.73
2016-02-17T05:35:15.387Z,83.73
2016-02-17T05:36:15.374Z,83.54
2016-02-17T05:37:15.205Z,83.83
2016-02-17T05:38:15.365Z,83.36
2016-02-17T05:39:15.351Z,83.92
2016-02-17T05:40:15.338Z,83.73
2016-02-17T05:41:15.340Z,84.11
2016-02-17T05:42:15.328Z,83.45
2016-02-17T05:43:15.314Z,83.92
2016-02-17T05:44:15.302Z,83.83
2016-02-17T05:45:15.304Z,83.54
2016-02-17T05:46:15.292Z,83.54
2016-02-17T05:47:15.295Z,83.73
2016-02-17T05:48:15.266Z,83.69
2016-02-17T05:49:15.269Z,83.45
2016-02-17T05:50:15.255Z,83.4
2016-02-17T05:51:15.258Z,83.78
2016-02-17T05:52:15.245Z,83.45
2016-02-17T05:53:15.248Z,83.59
2016-02-17T05:54:15.220Z,83.4
2016-02-17T05:55:15.238Z,83.4
2016-02-17T05:56:15.225Z,83.59
2016-02-17T05:57:15.211Z,83.59
2016-02-17T05:58:15.199Z,83.59
2016-02-17T05:59:15.185Z,83.88
2016-02-17T06:00:15.189Z,83.88
2016-02-17T06:01:15.177Z,83.88
2016-02-17T06:02:15.163Z,84.07
2016-02-17T06:03:15.165Z,84.26
2016-02-17T06:04:15.137Z,84.35
2016-02-17T06:05:15.140Z,84.26
2016-02-17T06:06:15.126Z,84.07
2016-02-17T06:07:15.130Z,84.45
2016-02-17T06:08:15.116Z,84.07
2016-02-17T06:09:15.119Z,84.54
2016-02-17T06:10:15.309Z,84.07
2016-02-17T06:11:15.093Z,83.88
2016-02-17T06:12:15.096Z,84.16
2016-02-17T06:13:15.067Z,84.64
2016-02-17T06:14:15.071Z,84.73
2016-02-17T06:15:15.057Z,85.3
2016-02-17T06:16:15.059Z,85.39
2016-02-17T06:17:15.062Z,85.11
2016-02-17T06:18:15.034Z,84.92
2016-02-17T06:19:15.006Z,85.01
2016-02-17T06:20:15.009Z,85.01
2016-02-17T06:21:15.011Z,85.3
2016-02-17T06:22:14.997Z,85.39
2016-02-17T06:23:14.986Z,85.86
2016-02-17T06:24:14.973Z,85.68
2016-02-17T06:25:14.975Z,85.77
2016-02-17T06:26:14.962Z,85.86
2016-02-17T06:27:14.949Z,86.05
2016-02-17T06:28:14.936Z,85.68
2016-02-17T06:29:14.938Z,85.58
2016-02-17T06:30:14.925Z,85.49
2016-02-17T06:31:14.928Z,85.96
2016-02-17T06:32:14.931Z,85.49
2016-02-17T06:33:14.903Z,85.01
2016-02-17T06:34:14.890Z,85.01
2016-02-17T06:35:14.893Z,84.82
2016-02-17T06:36:14.879Z,85.11
2016-02-17T06:37:14.866Z,85.11
2016-02-17T06:38:14.853Z,84.73
2016-02-17T06:39:14.857Z,84.54
2016-02-17T06:40:14.828Z,84.54
2016-02-17T06:41:14.846Z,84.54
2016-02-17T06:42:14.833Z,84.54
2016-02-17T06:43:14.820Z,84.16
2016-02-17T06:44:14.807Z,84.16
2016-02-17T06:45:14.794Z,83.78
2016-02-17T06:46:14.781Z,84.07
2016-02-17T06:47:14.785Z,83.78
2016-02-17T06:48:14.771Z,84.07
2016-02-17T06:49:14.759Z,83.97
2016-02-17T06:50:14.761Z,84.16
2016-02-17T06:51:14.748Z,83.78
2016-02-17T06:52:14.751Z,83.88
2016-02-17T06:53:14.737Z,83.88
2016-02-17T06:54:14.739Z,83.97
2016-02-17T06:55:14.712Z,84.16
2016-02-17T06:56:14.715Z,83.88
2016-02-17T06:57:14.717Z,83.69
2016-02-17T06:58:14.688Z,84.26
2016-02-17T06:59:14.675Z,83.97
2016-02-17T07:00:14.678Z,83.78
2016-02-17T07:01:14.665Z,83.88
2016-02-17T07:02:14.653Z,83.5
2016-02-17T07:03:14.656Z,83.78
2016-02-17T07:04:14.641Z,83.88
2016-02-17T07:05:14.629Z,83.4
2016-02-17T07:06:14.663Z,83.59
2016-02-17T07:07:14.619Z,83.5
2016-02-17T07:08:14.607Z,83.5
2016-02-17T07:09:14.610Z,83.78
2016-02-17T07:10:14.596Z,83.69
2016-02-17T07:11:14.583Z,83.78
2016-02-17T07:12:14.586Z,83.4
2016-02-17T07:13:14.588Z,83.5
2016-02-17T07:14:14.560Z,83.88
2016-02-17T07:15:14.546Z,83.59
2016-02-17T07:16:14.550Z,83.78
2016-02-17T07:17:14.537Z,83.88
2016-02-17T07:18:14.367Z,83.5
2016-02-17T07:19:14.526Z,83.69
2016-02-17T07:20:14.514Z,83.4
2016-02-17T07:21:14.516Z,83.4
2016-02-17T07:22:14.504Z,83.78
2016-02-17T07:23:14.489Z,83.5
2016-02-17T07:24:14.478Z,83.4
2016-02-17T07:25:14.464Z,83.69
2016-02-17T07:26:14.483Z,83.59
2016-02-17T07:27:14.454Z,83.78
2016-02-17T07:28:14.441Z,83.69
2016-02-17T07:29:14.428Z,83.59
2016-02-17T07:30:14.478Z,83.4
2016-02-17T07:31:14.433Z,83.88
2016-02-17T07:32:14.406Z,83.59
2016-02-17T07:33:14.408Z,83.31
2016-02-17T07:34:14.395Z,83.59
2016-02-17T07:35:14.397Z,83.4
2016-02-17T07:36:14.385Z,83.88
2016-02-17T07:37:14.372Z,83.59
2016-02-17T07:38:14.374Z,83.78
2016-02-17T07:39:14.361Z,83.12
2016-02-17T07:40:14.349Z,83.78
2016-02-17T07:41:14.352Z,83.59
2016-02-17T07:42:14.323Z,83.78
2016-02-17T07:43:14.326Z,83.4
2016-02-17T07:44:14.344Z,82.98
2016-02-17T07:45:14.315Z,83.17
2016-02-17T07:46:14.301Z,83.22
2016-02-17T07:47:14.305Z,82.98
2016-02-17T07:48:14.276Z,82.88
2016-02-17T07:49:14.276Z,82.98
2016-02-17T07:50:14.261Z,82.98
2016-02-17T07:51:14.217Z,82.69
2016-02-17T07:52:14.203Z,82.5
2016-02-17T07:53:14.190Z,82.5
2016-02-17T07:54:14.162Z,82.31
2016-02-17T07:55:14.143Z,82.41
2016-02-17T07:56:14.172Z,82.6
2016-02-17T07:57:14.122Z,82.5
2016-02-17T07:58:14.102Z,82.41
2016-02-17T07:59:14.100Z,82.31
2016-02-17T08:00:14.069Z,82.31
2016-02-17T08:01:14.070Z,82.41
2016-02-17T08:02:14.072Z,82.6
2016-02-17T08:03:14.056Z,82.41
2016-02-17T08:04:14.043Z,82.31
2016-02-17T08:05:14.059Z,82.22
2016-02-17T08:06:14.030Z,82.22
2016-02-17T08:07:14.017Z,82.03
2016-02-17T08:08:14.019Z,82.03
2016-02-17T08:09:14.021Z,82.22
2016-02-17T08:10:13.991Z,82.03
2016-02-17T08:11:13.993Z,81.93
2016-02-17T08:12:13.996Z,81.84
2016-02-17T08:13:13.967Z,81.93
2016-02-17T08:14:13.969Z,82.03
2016-02-17T08:15:13.972Z,81.46
2016-02-17T08:16:13.193Z,81.27
2016-02-17T08:17:13.947Z,81.51
2016-02-17T08:18:13.949Z,81.41
2016-02-17T08:19:13.936Z,81.7
2016-02-17T08:20:13.938Z,81.32
2016-02-17T08:21:13.941Z,81.51
2016-02-17T08:22:13.929Z,81.13
2016-02-17T08:23:13.915Z,81.22
2016-02-17T08:24:13.903Z,80.94
2016-02-17T08:25:13.921Z,81.13
2016-02-17T08:26:13.893Z,81.13
2016-02-17T08:27:13.880Z,80.65
2016-02-17T08:28:13.883Z,80.94
2016-02-17T08:29:13.869Z,81.03
2016-02-17T08:30:13.872Z,81.03
2016-02-17T08:31:13.875Z,80.84
2016-02-17T08:32:14.190Z,81.32
2016-02-17T08:33:13.848Z,81.13
2016-02-17T08:34:13.837Z,81.32
2016-02-17T08:35:13.839Z,81.03
2016-02-17T08:36:13.826Z,80.84
2016-02-17T08:37:13.828Z,81.13
2016-02-17T08:38:13.815Z,81.22
2016-02-17T08:39:13.818Z,80.75
2016-02-17T08:40:13.806Z,80.84
2016-02-17T08:41:13.792Z,81.13
2016-02-17T08:42:13.795Z,80.18
2016-02-17T08:43:13.798Z,79.99
2016-02-17T08:44:13.785Z,80.08
2016-02-17T08:45:13.788Z,80.18
2016-02-17T08:46:13.775Z,79.99
2016-02-17T08:47:13.762Z,80.56
2016-02-17T08:48:13.765Z,80.46
2016-02-17T08:49:13.736Z,80.37
2016-02-17T08:50:13.739Z,80.27
2016-02-17T08:51:13.725Z,79.9
2016-02-17T08:52:13.728Z,79.52
2016-02-17T08:53:13.715Z,79.33
2016-02-17T08:54:13.718Z,79.61
2016-02-17T08:55:13.736Z,79.8
2016-02-17T08:56:13.724Z,79.71
2016-02-17T08:57:13.711Z,80.18
2016-02-17T08:58:13.713Z,79.99
2016-02-17T08:59:13.685Z,79.61
2016-02-17T09:00:13.687Z,80.46
2016-02-17T09:01:13.674Z,80.18
2016-02-17T09:02:13.677Z,79.85
2016-02-17T09:03:13.665Z,79.8
2016-02-17T09:04:13.668Z,79.94
2016-02-17T09:05:13.654Z,80.04
2016-02-17T09:06:13.641Z,79.94
2016-02-17T09:07:13.643Z,80.04
2016-02-17T09:08:13.646Z,80.04
2016-02-17T09:09:13.634Z,80.13
2016-02-17T09:10:13.651Z,80.04
2016-02-17T09:11:13.623Z,79.18
2016-02-17T09:12:13.609Z,79.28
2016-02-17T09:13:13.613Z,79.37
2016-02-17T09:14:13.616Z,79.47
2016-02-17T09:15:13.603Z,79.18
2016-02-17T09:16:13.606Z,78.9
2016-02-17T09:17:13.592Z,78.99
2016-02-17T09:18:13.580Z,79.09
2016-02-17T09:19:13.582Z,78.42
2016-02-17T09:20:13.569Z,78.8
2016-02-17T09:21:13.572Z,78.9
2016-02-17T09:22:13.574Z,78.8
2016-02-17T09:23:13.562Z,79.37
2016-02-17T09:24:13.549Z,78.9
2016-02-17T09:25:13.552Z,78.8
2016-02-17T09:26:13.538Z,78.61
2016-02-17T09:27:13.541Z,78.8
2016-02-17T09:28:13.543Z,79.18
2016-02-17T09:29:13.547Z,79.28
2016-02-17T09:30:13.518Z,79.28
2016-02-17T09:31:13.521Z,79.28
2016-02-17T09:32:13.507Z,79.37
2016-02-17T09:33:13.510Z,78.9
2016-02-17T09:34:13.513Z,78.42
2016-02-17T09:35:13.500Z,78.8
2016-02-17T09:36:13.488Z,78.9
2016-02-17T09:37:13.491Z,78.61
2016-02-17T09:38:13.493Z,78.33
2016-02-17T09:39:13.480Z,78.61
2016-02-17T09:40:13.482Z,78.23
2016-02-17T09:41:13.470Z,77.67
2016-02-17T09:42:13.473Z,78.42
2016-02-17T09:43:13.475Z,77.39
2016-02-17T09:44:13.443Z,77.67
2016-02-17T09:45:13.446Z,78.14
2016-02-17T09:46:13.448Z,78.33
2016-02-17T09:47:13.451Z,77.01
2016-02-17T09:48:13.439Z,77.01
2016-02-17T09:49:13.426Z,77.01
2016-02-17T09:50:13.428Z,77.1
2016-02-17T09:51:13.431Z,77.58
2016-02-17T09:52:13.419Z,77.67
2016-02-17T09:53:13.406Z,77.67
2016-02-17T09:54:13.408Z,77.86
2016-02-17T09:55:13.395Z,77.48
2016-02-17T09:56:13.413Z,77.29
2016-02-17T09:57:13.385Z,75.96
2016-02-17T09:58:13.388Z,77.01
2016-02-17T09:59:13.391Z,76.63
2016-02-17T10:00:13.378Z,76.53
2016-02-17T10:01:13.380Z,76.72
2016-02-17T10:02:13.367Z,76.82
2016-02-17T10:03:13.370Z,76.15
2016-02-17T10:04:13.357Z,76.72
2016-02-17T10:05:13.343Z,76.63
2016-02-17T10:06:13.346Z,77.29
2016-02-17T10:07:13.349Z,77.29
2016-02-17T10:08:13.337Z,76.82
2016-02-17T10:09:13.339Z,76.44
2016-02-17T10:10:13.326Z,77.01
2016-02-17T10:11:13.329Z,77.2
2016-02-17T10:12:13.315Z,76.34
2016-02-17T10:13:13.318Z,76.63
2016-02-17T10:14:13.306Z,75.02
2016-02-17T10:15:13.292Z,75.87
2016-02-17T10:16:13.296Z,76.38
2016-02-17T10:17:13.298Z,76.29
2016-02-17T10:18:13.301Z,76.29
2016-02-17T10:19:13.287Z,76.48
2016-02-17T10:20:13.275Z,76.57
2016-02-17T10:21:13.278Z,77.04
2016-02-17T10:22:13.264Z,76.57
2016-02-17T10:23:13.252Z,75.15
2016-02-17T10:24:13.270Z,74.96
2016-02-17T10:25:13.257Z,75.81
2016-02-17T10:26:13.260Z,74.87
2016-02-17T10:27:13.263Z,75.81
2016-02-17T10:28:13.234Z,74.87
2016-02-17T10:29:13.236Z,75.53
2016-02-17T10:30:13.224Z,74.87
2016-02-17T10:31:13.227Z,75.05
2016-02-17T10:32:13.245Z,75.43
2016-02-17T10:33:13.232Z,75.53
2016-02-17T10:34:13.219Z,75.53
2016-02-17T10:35:13.222Z,75.34
2016-02-17T10:36:13.208Z,75.43
2016-02-17T10:37:13.211Z,75.43
2016-02-17T10:38:13.199Z,75.81
2016-02-17T10:39:13.202Z,74.96
2016-02-17T10:40:13.189Z,74.62
2016-02-17T10:41:13.191Z,74.05
2016-02-17T10:42:13.179Z,73.58
2016-02-17T10:43:13.182Z,73.39
2016-02-17T10:44:13.234Z,74.33
2016-02-17T10:45:13.287Z,73.39
2016-02-17T10:46:13.165Z,73.58
2016-02-17T10:47:13.224Z,74.71
2016-02-17T10:48:13.159Z,74.33
2016-02-17T10:49:13.162Z,73.86
2016-02-17T10:50:13.149Z,73.11
2016-02-17T10:51:13.168Z,73.3
2016-02-17T10:52:13.139Z,71.59
2016-02-17T10:53:13.142Z,71.59
2016-02-17T10:54:13.130Z,71.78
2016-02-17T10:55:13.148Z,71.88
2016-02-17T10:56:13.135Z,72.92
2016-02-17T10:57:13.147Z,73.2
2016-02-17T10:58:13.119Z,72.63
2016-02-17T10:59:13.121Z,73.01
2016-02-17T11:00:13.108Z,72.34
2016-02-17T11:01:13.127Z,72.53
2016-02-17T11:02:13.113Z,72.25
2016-02-17T11:03:13.116Z,72.34
2016-02-17T11:04:13.104Z,73.14
2016-02-17T11:05:13.107Z,70.87
2016-02-17T11:06:13.093Z,71.25
2016-02-17T11:07:13.112Z,71.15
2016-02-17T11:08:13.084Z,70.49
2016-02-17T11:09:13.101Z,70.2
2016-02-17T11:10:13.090Z,70.87
2016-02-17T11:11:13.076Z,70.93
2016-02-17T11:12:13.079Z,71.4
2016-02-17T11:13:13.081Z,71.4
2016-02-17T11:14:13.084Z,71.5
2016-02-17T11:15:13.103Z,71.31
2016-02-17T11:16:27.387Z,71.5
2016-02-17T11:17:13.062Z,71.97
2016-02-17T11:18:13.111Z,72.06
2016-02-17T11:19:13.067Z,72.44
2016-02-17T11:20:13.053Z,72.82
2016-02-17T11:21:13.056Z,72.82
2016-02-17T11:22:13.059Z,72.73
2016-02-17T11:23:13.031Z,73.39
2016-02-17T11:24:13.033Z,73.49
2016-02-17T11:25:13.067Z,73.77
2016-02-17T11:26:13.023Z,74.33
2016-02-17T11:27:13.025Z,74.43
2016-02-17T11:28:13.028Z,74.52
2016-02-17T11:29:13.031Z,75
2016-02-17T11:30:13.019Z,75
2016-02-17T11:31:13.021Z,74.71
2016-02-17T11:32:13.008Z,75.47
2016-02-17T11:33:12.995Z,75.09
2016-02-17T11:34:12.998Z,75.19
2016-02-17T11:35:12.985Z,76.32
2016-02-17T11:36:12.988Z,75.85
2016-02-17T11:37:12.990Z,76.61
2016-02-17T11:38:12.993Z,76.89
2016-02-17T11:39:12.979Z,76.89
2016-02-17T11:40:12.966Z,77.08
2016-02-17T11:41:12.985Z,77.04
2016-02-17T11:42:12.972Z,77.04
2016-02-17T11:43:12.960Z,77.23
2016-02-17T11:44:12.993Z,77.8
2016-02-17T11:45:12.965Z,77.51
2016-02-17T11:46:12.968Z,77.7
2016-02-17T11:47:12.955Z,77.51
2016-02-17T11:48:12.958Z,77.61
2016-02-17T11:49:12.929Z,77.51
2016-02-17T11:50:12.947Z,77.99
2016-02-17T11:51:13.247Z,78.18
2016-02-17T11:52:12.921Z,78.75
2016-02-17T11:53:12.909Z,78.75
2016-02-17T11:54:12.927Z,78.27
2016-02-17T11:55:12.898Z,78.37
2016-02-17T11:56:12.917Z,78.85
2016-02-17T11:57:12.904Z,78.46
2016-02-17T11:58:13.094Z,78.85
2016-02-17T11:59:12.894Z,78.85
2016-02-17T12:00:12.881Z,78.56
2016-02-17T12:01:12.867Z,78.75
2016-02-17T12:02:12.887Z,78.46
2016-02-17T12:03:12.858Z,78.85
2016-02-17T12:04:12.876Z,78.94
2016-02-17T12:05:12.867Z,79.32
2016-02-17T12:06:12.870Z,78.56
2016-02-17T12:07:12.841Z,79.22
2016-02-17T12:08:12.844Z,79.5
2016-02-17T12:09:12.847Z,80.07
2016-02-17T12:10:12.835Z,79.6
2016-02-17T12:11:12.837Z,79.03
2016-02-17T12:12:12.840Z,79.32
2016-02-17T12:13:12.843Z,79.41
2016-02-17T12:14:12.814Z,79.88
2016-02-17T12:15:12.832Z,79.69
2016-02-17T12:16:12.819Z,79.98
2016-02-17T12:17:12.790Z,79.13
2016-02-17T12:18:12.810Z,79.13
2016-02-17T12:19:12.796Z,79.13
2016-02-17T12:20:12.798Z,79.88
2016-02-17T12:21:12.818Z,79.69
2016-02-17T12:22:12.773Z,79.5
2016-02-17T12:23:12.791Z,79.41
2016-02-17T12:24:12.762Z,79.88
2016-02-17T12:25:12.750Z,80.17
2016-02-17T12:26:12.768Z,80.07
2016-02-17T12:27:12.740Z,80.07
2016-02-17T12:28:12.742Z,79.88
2016-02-17T12:29:12.744Z,80.17
2016-02-17T12:30:12.748Z,80.07
2016-02-17T12:31:12.719Z,79.98
2016-02-17T12:32:12.722Z,80.36
2016-02-17T12:33:12.756Z,80.36
2016-02-17T12:34:12.727Z,79.88
2016-02-17T12:35:12.777Z,80.07
2016-02-17T12:36:12.701Z,79.88
2016-02-17T12:37:12.703Z,79.88
2016-02-17T12:38:12.691Z,79.69
2016-02-17T12:39:12.741Z,80.07
2016-02-17T12:40:12.744Z,80.07
2016-02-17T12:41:12.730Z,79.88
2016-02-17T12:42:12.717Z,79.88
2016-02-17T12:43:12.845Z,80.26
2016-02-17T12:44:12.722Z,79.88
2016-02-17T12:45:12.710Z,80.07
2016-02-17T12:46:12.744Z,80.55
2016-02-17T12:47:12.809Z,80.07
2016-02-17T12:48:12.702Z,79.69
2016-02-17T12:49:12.783Z,80.26
2016-02-17T12:50:12.707Z,80.55
2016-02-17T12:51:12.804Z,80.64
2016-02-17T12:52:12.807Z,80.64
2016-02-17T12:53:12.684Z,80.26
2016-02-17T12:54:12.671Z,80.45
2016-02-17T12:55:12.846Z,80.45